Time;durP1;ratioP1;P1;durP2;ratioP2;P2;SDS_P1;SDS_P2;PMS_P1;PMS_P2;Temp;Humidity;BMP_temperature;BMP_pressure;BME280_temperature;BME280_humidity;BME280_pressure;Samples;Min_cycle;Max_cycle;Signal;HPM_P1;HPM_P2
2024/02/07 00:00:35;;;;;;;2.78;0.75;;;;;;;;;;5086448;28;20040;-77
2024/02/07 00:03:00;;;;;;;4.05;0.88;;;;;;;;;;5090733;28;20119;-77
2024/02/07 00:05:25;;;;;;;2.30;0.75;;;;;;;;;;5085929;28;20141;-77
2024/02/07 00:07:51;;;;;;;3.03;1.00;;;;;;;;;;5086791;28;20037;-77
2024/02/07 00:10:16;;;;;;;2.65;0.70;;;;;;;;;;5081631;28;20115;-77
2024/02/07 00:12:41;;;;;;;3.03;0.80;;;;;;;;;;5091652;28;20039;-77
2024/02/07 00:15:06;;;;;;;2.92;1.00;;;;;;;;;;5089161;28;20341;-77
2024/02/07 00:17:32;;;;;;;4.20;0.90;;;;;;;;;;5083443;28;20534;-77
2024/02/07 00:19:57;;;;;;;1.92;0.70;;;;;;;;;;5087632;28;20039;-77
2024/02/07 00:22:22;;;;;;;5.85;1.30;;;;;;;;;;5083245;28;20029;-77
2024/02/07 00:24:47;;;;;;;3.28;1.02;;;;;;;;;;5088853;28;20517;-77
2024/02/07 00:27:12;;;;;;;2.13;0.73;;;;;;;;;;5091779;28;20089;-77
2024/02/07 00:29:37;;;;;;;3.40;1.23;;;;;;;;;;5088797;28;20397;-77
2024/02/07 00:32:03;;;;;;;3.88;1.10;;;;;;;;;;5089069;28;20100;-77
2024/02/07 00:34:29;;;;;;;2.92;0.88;;;;;;;;;;5086581;28;20075;-77
2024/02/07 00:36:54;;;;;;;2.95;1.00;;;;;;;;;;5086074;28;20031;-77
2024/02/07 00:39:19;;;;;;;2.25;0.82;;;;;;;;;;5085023;28;20109;-77
2024/02/07 00:41:44;;;;;;;4.97;1.10;;;;;;;;;;5090941;28;20372;-77
2024/02/07 00:44:10;;;;;;;4.30;1.20;;;;;;;;;;5089434;28;20059;-77
2024/02/07 00:46:35;;;;;;;2.50;0.95;;;;;;;;;;5086272;28;20705;-77
2024/02/07 00:49:03;;;;;;;3.38;1.08;;;;;;;;;;5086604;28;20031;-77
2024/02/07 00:51:28;;;;;;;4.90;1.10;;;;;;;;;;5081913;28;20056;-77
2024/02/07 00:53:53;;;;;;;3.30;1.10;;;;;;;;;;5087835;28;20067;-77
2024/02/07 00:56:18;;;;;;;3.20;0.88;;;;;;;;;;5089858;28;20116;-76
2024/02/07 00:58:44;;;;;;;4.60;1.25;;;;;;;;;;5088349;28;20553;-77
2024/02/07 01:01:09;;;;;;;2.57;1.10;;;;;;;;;;5085325;28;20059;-77
2024/02/07 01:03:34;;;;;;;4.50;1.15;;;;;;;;;;5086629;28;20361;-77
2024/02/07 01:05:59;;;;;;;3.67;0.80;;;;;;;;;;5087435;28;20039;-77
2024/02/07 01:08:24;;;;;;;5.50;1.60;;;;;;;;;;5088293;28;20039;-77
2024/02/07 01:10:50;;;;;;;4.37;1.40;;;;;;;;;;5089599;28;20517;-77
2024/02/07 01:13:15;;;;;;;4.30;1.25;;;;;;;;;;5086932;28;20266;-77
2024/02/07 01:15:40;;;;;;;3.08;1.00;;;;;;;;;;5085779;28;20086;-77
2024/02/07 01:18:05;;;;;;;3.78;1.40;;;;;;;;;;5085384;28;20035;-77
2024/02/07 01:20:30;;;;;;;4.30;1.00;;;;;;;;;;5083609;28;20399;-77
2024/02/07 01:22:56;;;;;;;3.70;1.23;;;;;;;;;;5090711;28;20361;-77
2024/02/07 01:25:21;;;;;;;5.00;1.13;;;;;;;;;;5088165;28;20025;-77
2024/02/07 01:27:46;;;;;;;4.05;1.05;;;;;;;;;;5087144;28;20405;-77
2024/02/07 01:30:11;;;;;;;3.15;1.30;;;;;;;;;;5084650;28;20028;-77
2024/02/07 01:32:41;;;;;;;7.68;1.50;;;;;;;;;;5086841;28;20020;-77
2024/02/07 01:35:06;;;;;;;2.95;1.08;;;;;;;;;;5087271;28;20387;-76
2024/02/07 01:37:32;;;;;;;4.93;1.50;;;;;;;;;;5089217;28;20019;-77
2024/02/07 01:39:58;;;;;;;5.25;1.20;;;;;;;;;;5088392;28;20454;-76
2024/02/07 01:42:28;;;;;;;4.00;1.25;;;;;;;;;;5084625;28;20120;-76
2024/02/07 01:45:09;;;;;;;4.43;1.42;;;;;;;;;;5089894;28;20407;-77
2024/02/07 01:47:34;;;;;;;5.78;1.40;;;;;;;;;;5081822;28;20033;-77
2024/02/07 01:49:59;;;;;;;6.03;1.60;;;;;;;;;;5090387;28;20024;-77
2024/02/07 01:52:25;;;;;;;3.80;1.30;;;;;;;;;;5081923;28;20031;-77
2024/02/07 01:54:52;;;;;;;3.88;1.30;;;;;;;;;;5087369;28;20031;-76
2024/02/07 01:57:18;;;;;;;6.72;1.85;;;;;;;;;;5084287;28;20036;-76
2024/02/07 01:59:43;;;;;;;4.50;1.80;;;;;;;;;;5083422;28;20717;-77
2024/02/07 02:02:09;;;;;;;3.83;1.30;;;;;;;;;;5082255;28;20035;-77
2024/02/07 02:04:34;;;;;;;6.32;1.67;;;;;;;;;;5085702;28;20038;-77
2024/02/07 02:07:02;;;;;;;4.63;1.58;;;;;;;;;;5076617;28;20024;-77
2024/02/07 02:09:28;;;;;;;4.45;1.50;;;;;;;;;;5075806;28;20035;-77
2024/02/07 02:11:54;;;;;;;3.95;1.48;;;;;;;;;;5070489;28;20032;-77
2024/02/07 02:14:19;;;;;;;8.13;1.70;;;;;;;;;;5086088;28;20028;-77
2024/02/07 02:16:45;;;;;;;6.88;1.83;;;;;;;;;;5071501;28;20181;-76
2024/02/07 02:19:10;;;;;;;15.18;1.80;;;;;;;;;;5070820;28;20024;-77
2024/02/07 02:21:50;;;;;;;4.33;1.77;;;;;;;;;;5070235;28;20032;-77
2024/02/07 02:24:27;;;;;;;5.63;1.40;;;;;;;;;;5076861;28;21101;-77
2024/02/07 02:27:00;;;;;;;4.43;1.50;;;;;;;;;;5070292;28;20032;-77
2024/02/07 02:29:36;;;;;;;7.65;1.83;;;;;;;;;;5070573;28;20511;-77
2024/02/07 02:32:02;;;;;;;6.97;1.42;;;;;;;;;;5073132;28;20048;-77
2024/02/07 02:34:28;;;;;;;4.97;1.58;;;;;;;;;;5076673;28;20027;-77
2024/02/07 02:36:54;;;;;;;4.38;1.30;;;;;;;;;;5070596;28;20029;-76
2024/02/07 02:39:19;;;;;;;4.63;1.65;;;;;;;;;;5070472;28;20028;-77
2024/02/07 02:41:44;;;;;;;5.57;1.83;;;;;;;;;;5069798;28;20119;-77
2024/02/07 02:44:10;;;;;;;7.57;1.95;;;;;;;;;;5074087;28;20015;-77
2024/02/07 02:46:35;;;;;;;5.13;1.67;;;;;;;;;;5071757;28;20086;-77
2024/02/07 02:49:01;;;;;;;7.82;1.50;;;;;;;;;;5070364;28;20021;-77
2024/02/07 02:51:26;;;;;;;5.80;1.60;;;;;;;;;;5069783;28;20024;-77
2024/02/07 02:53:52;;;;;;;6.63;1.55;;;;;;;;;;5071175;28;20636;-77
2024/02/07 02:56:17;;;;;;;5.00;1.52;;;;;;;;;;5076984;28;20028;-77
2024/02/07 02:58:43;;;;;;;5.00;1.38;;;;;;;;;;5070318;28;20033;-77
2024/02/07 03:01:09;;;;;;;5.55;1.63;;;;;;;;;;5069891;28;20550;-77
2024/02/07 03:03:35;;;;;;;5.72;1.67;;;;;;;;;;5073774;28;20480;-77
2024/02/07 03:06:03;;;;;;;4.95;1.92;;;;;;;;;;5075875;28;20071;-77
2024/02/07 03:08:42;;;;;;;6.80;1.85;;;;;;;;;;5070048;28;20040;-77
2024/02/07 03:11:10;;;;;;;4.93;1.38;;;;;;;;;;5073508;28;20041;-77
2024/02/07 03:13:37;;;;;;;4.90;1.80;;;;;;;;;;5069622;28;20076;-77
2024/02/07 03:16:05;;;;;;;4.05;1.40;;;;;;;;;;5074763;28;20104;-77
2024/02/07 03:18:31;;;;;;;6.95;1.73;;;;;;;;;;5077398;28;20016;-77
2024/02/07 03:20:56;;;;;;;6.88;1.67;;;;;;;;;;5069625;28;20365;-77
2024/02/07 03:23:22;;;;;;;6.63;1.50;;;;;;;;;;5069543;28;20024;-77
2024/02/07 03:25:47;;;;;;;3.95;1.27;;;;;;;;;;5078816;28;20476;-77
2024/02/07 03:28:15;;;;;;;5.03;1.33;;;;;;;;;;5069644;28;20032;-77
2024/02/07 03:30:40;;;;;;;3.90;1.50;;;;;;;;;;5069426;28;20032;-77
2024/02/07 03:33:06;;;;;;;5.15;1.65;;;;;;;;;;5075630;28;20036;-77
2024/02/07 03:35:32;;;;;;;5.18;1.75;;;;;;;;;;5074876;28;20028;-77
2024/02/07 03:37:58;;;;;;;4.20;1.67;;;;;;;;;;5082207;28;20032;-77
2024/02/07 03:40:24;;;;;;;5.93;1.70;;;;;;;;;;5077594;28;20035;-77
2024/02/07 03:42:50;;;;;;;5.50;1.80;;;;;;;;;;5073293;28;20194;-77
2024/02/07 03:45:16;;;;;;;4.53;1.48;;;;;;;;;;5078625;28;20140;-78
2024/02/07 03:47:41;;;;;;;7.40;2.30;;;;;;;;;;5073478;28;20504;-77
2024/02/07 03:50:10;;;;;;;5.97;2.03;;;;;;;;;;5073349;28;20104;-77
2024/02/07 03:52:36;;;;;;;3.70;1.60;;;;;;;;;;5073477;28;20052;-77
2024/02/07 03:55:01;;;;;;;4.03;1.83;;;;;;;;;;5077806;28;20032;-77
2024/02/07 03:57:26;;;;;;;5.90;1.60;;;;;;;;;;5077622;28;20036;-77
2024/02/07 03:59:51;;;;;;;8.02;2.20;;;;;;;;;;5077194;28;20275;-77
2024/02/07 04:02:22;;;;;;;9.07;1.70;;;;;;;;;;5077988;28;20055;-77
2024/02/07 04:04:49;;;;;;;4.80;1.70;;;;;;;;;;5078327;28;20564;-77
2024/02/07 04:07:14;;;;;;;6.25;2.30;;;;;;;;;;5073366;28;20447;-77
2024/02/07 04:09:39;;;;;;;5.53;1.65;;;;;;;;;;5082886;28;20028;-77
2024/02/07 05:17:00;;;;;;;5.25;1.60;;;;;;;;;;5078151;28;20595;-76
2024/02/07 05:19:25;;;;;;;5.50;1.88;;;;;;;;;;5072247;28;20107;-75
2024/02/07 05:21:51;;;;;;;4.35;1.58;;;;;;;;;;5075602;28;20020;-75
2024/02/07 05:24:17;;;;;;;6.50;1.92;;;;;;;;;;5077904;28;20541;-75
2024/02/07 05:26:42;;;;;;;5.85;2.05;;;;;;;;;;5080740;28;20040;-75
2024/02/07 05:29:07;;;;;;;6.18;1.35;;;;;;;;;;5076456;28;20149;-76
2024/02/07 05:31:32;;;;;;;4.15;1.63;;;;;;;;;;5078905;28;20021;-75
2024/02/07 05:33:57;;;;;;;3.95;1.73;;;;;;;;;;5085813;28;20028;-75
2024/02/07 05:36:22;;;;;;;3.20;1.48;;;;;;;;;;5089100;28;20036;-75
2024/02/07 05:38:48;;;;;;;5.28;1.83;;;;;;;;;;5088496;28;20480;-76
2024/02/07 05:41:13;;;;;;;3.43;1.80;;;;;;;;;;5084445;28;20742;-75
2024/02/07 05:43:38;;;;;;;4.82;1.92;;;;;;;;;;5081336;28;20368;-76
2024/02/07 05:46:03;;;;;;;4.22;1.80;;;;;;;;;;5090662;28;20103;-75
2024/02/07 05:48:29;;;;;;;6.03;2.28;;;;;;;;;;5086964;28;20027;-76
2024/02/07 05:50:55;;;;;;;7.85;2.53;;;;;;;;;;5086406;28;20028;-77
2024/02/07 05:53:20;;;;;;;5.95;2.78;;;;;;;;;;5079218;28;20100;-76
2024/02/07 05:55:45;;;;;;;7.32;2.75;;;;;;;;;;5086956;28;20036;-76
2024/02/07 05:58:10;;;;;;;5.78;2.80;;;;;;;;;;5082114;28;20127;-75
2024/02/07 06:00:35;;;;;;;9.23;3.22;;;;;;;;;;5086545;28;20055;-75
2024/02/07 06:03:05;;;;;;;2.42;0.98;;;;;;;;;;5087393;28;20063;-76
2024/02/07 06:05:30;;;;;;;1.25;0.40;;;;;;;;;;5085898;28;20023;-76
2024/02/07 06:07:56;;;;;;;1.92;0.70;;;;;;;;;;5086016;28;20407;-76
2024/02/07 06:10:21;;;;;;;3.17;1.23;;;;;;;;;;5081613;28;20946;-75
2024/02/07 06:12:46;;;;;;;2.17;1.00;;;;;;;;;;5085644;28;20029;-75
2024/02/07 06:15:11;;;;;;;0.63;0.20;;;;;;;;;;5090106;28;20020;-76
2024/02/07 06:17:38;;;;;;;2.17;0.40;;;;;;;;;;5087956;28;20028;-75
2024/02/07 06:20:03;;;;;;;1.17;0.20;;;;;;;;;;5088329;28;20059;-76
2024/02/07 06:22:28;;;;;;;1.65;0.30;;;;;;;;;;5082593;28;20870;-76
2024/02/07 06:24:53;;;;;;;0.65;0.30;;;;;;;;;;5086408;28;20024;-75
2024/02/07 06:27:18;;;;;;;0.60;0.30;;;;;;;;;;5086388;28;20031;-76
2024/02/07 06:29:44;;;;;;;1.00;0.20;;;;;;;;;;5087923;28;20088;-75
2024/02/07 06:32:09;;;;;;;0.47;0.17;;;;;;;;;;5087772;28;20047;-76
2024/02/07 06:34:34;;;;;;;1.17;0.28;;;;;;;;;;5085950;28;20063;-75
2024/02/07 06:37:00;;;;;;;1.00;0.40;;;;;;;;;;5084771;28;20036;-75
2024/02/07 06:39:25;;;;;;;0.43;0.30;;;;;;;;;;5080081;28;20029;-76
2024/02/07 06:41:50;;;;;;;1.45;0.30;;;;;;;;;;5088826;28;20053;-76
2024/02/07 06:44:15;;;;;;;1.27;0.30;;;;;;;;;;5088110;28;20031;-76
2024/02/07 06:46:42;;;;;;;0.77;0.20;;;;;;;;;;5086583;28;20044;-76
2024/02/07 06:49:07;;;;;;;3.65;0.35;;;;;;;;;;5085671;28;20085;-75
2024/02/07 06:51:32;;;;;;;2.67;0.93;;;;;;;;;;5080377;28;20459;-76
2024/02/07 06:53:57;;;;;;;1.27;0.30;;;;;;;;;;5082453;28;20060;-76
2024/02/07 06:56:22;;;;;;;0.20;0.20;;;;;;;;;;5089884;28;20027;-76
2024/02/07 06:58:48;;;;;;;1.00;0.20;;;;;;;;;;5086714;28;20028;-76
2024/02/07 07:01:14;;;;;;;0.63;0.17;;;;;;;;;;5086043;28;20028;-75
2024/02/07 07:03:40;;;;;;;0.38;0.10;;;;;;;;;;5083918;28;20051;-75
2024/02/07 07:06:05;;;;;;;2.25;0.20;;;;;;;;;;5085812;28;20024;-76
2024/02/07 07:08:30;;;;;;;0.50;0.20;;;;;;;;;;5082513;28;20028;-76
2024/02/07 07:10:55;;;;;;;1.75;0.20;;;;;;;;;;5088798;28;20173;-76
2024/02/07 07:13:21;;;;;;;0.60;0.17;;;;;;;;;;5086463;28;20024;-76
2024/02/07 07:15:46;;;;;;;0.22;0.10;;;;;;;;;;5086400;28;20036;-76
2024/02/07 07:18:11;;;;;;;0.80;0.30;;;;;;;;;;5084252;28;20564;-76
2024/02/07 07:20:36;;;;;;;1.55;0.10;;;;;;;;;;5079823;28;20111;-76
2024/02/07 07:23:02;;;;;;;0.90;0.20;;;;;;;;;;5085676;28;20031;-76
2024/02/07 07:25:27;;;;;;;0.60;0.10;;;;;;;;;;5088461;28;20111;-76
2024/02/07 07:27:52;;;;;;;1.48;0.30;;;;;;;;;;5086165;28;20028;-76
2024/02/07 07:30:20;;;;;;;1.45;0.40;;;;;;;;;;5085982;28;20015;-78
2024/02/07 07:32:47;;;;;;;1.38;0.30;;;;;;;;;;5087064;28;20111;-78
2024/02/07 07:35:13;;;;;;;0.85;0.28;;;;;;;;;;5083636;28;20473;-78
2024/02/07 07:37:38;;;;;;;5.18;0.75;;;;;;;;;;5087780;28;20032;-78
2024/02/07 07:40:04;;;;;;;7.28;0.82;;;;;;;;;;5087881;28;20034;-78
2024/02/07 07:42:29;;;;;;;8.57;0.85;;;;;;;;;;5083783;28;20040;-78
2024/02/07 07:44:54;;;;;;;3.60;0.65;;;;;;;;;;5086610;28;20051;-78
2024/02/07 07:47:19;;;;;;;5.88;1.27;;;;;;;;;;5082299;28;20484;-78
2024/02/07 07:49:45;;;;;;;5.85;1.02;;;;;;;;;;5080700;28;20036;-78
2024/02/07 07:52:10;;;;;;;5.25;0.70;;;;;;;;;;5089422;28;20509;-78
2024/02/07 07:54:37;;;;;;;2.70;0.80;;;;;;;;;;5085796;28;20028;-78
2024/02/07 07:57:02;;;;;;;2.42;0.32;;;;;;;;;;5085199;28;20044;-78
2024/02/07 07:59:27;;;;;;;3.97;0.40;;;;;;;;;;5082290;28;20031;-78
2024/02/07 08:01:56;;;;;;;1.63;0.40;;;;;;;;;;5082486;28;20028;-78
2024/02/07 08:04:21;;;;;;;4.38;0.55;;;;;;;;;;5088496;28;20525;-78
2024/02/07 08:06:47;;;;;;;3.40;0.60;;;;;;;;;;5091870;28;20040;-79
2024/02/07 08:09:12;;;;;;;3.20;0.55;;;;;;;;;;5087230;28;20044;-79
2024/02/07 08:11:37;;;;;;;4.88;0.80;;;;;;;;;;5085553;28;20400;-78
2024/02/07 08:14:03;;;;;;;5.53;1.55;;;;;;;;;;5080161;28;20107;-80
2024/02/07 08:16:28;;;;;;;5.63;1.35;;;;;;;;;;5084805;28;20447;-77
2024/02/07 08:18:53;;;;;;;3.96;1.26;;;;;;;;;;5085640;28;20039;-77
2024/02/07 08:21:18;;;;;;;5.44;1.02;;;;;;;;;;5088275;28;20032;-78
2024/02/07 08:23:43;;;;;;;4.76;0.90;;;;;;;;;;5086740;28;20084;-77
2024/02/07 08:26:09;;;;;;;7.32;1.50;;;;;;;;;;5090706;28;20024;-77
2024/02/07 08:28:34;;;;;;;2.88;0.63;;;;;;;;;;5084212;28;20048;-77
2024/02/07 08:31:00;;;;;;;1.35;0.28;;;;;;;;;;5085806;28;20028;-78
2024/02/07 08:33:25;;;;;;;5.60;0.57;;;;;;;;;;5092511;28;20027;-78
2024/02/07 08:35:50;;;;;;;6.32;1.40;;;;;;;;;;5091425;28;20040;-77
2024/02/07 08:38:15;;;;;;;5.28;1.42;;;;;;;;;;5087817;28;20028;-77
2024/02/07 08:40:40;;;;;;;7.55;1.02;;;;;;;;;;5085227;28;20043;-77
2024/02/07 08:43:06;;;;;;;3.80;0.90;;;;;;;;;;5086397;28;20089;-77
2024/02/07 08:45:34;;;;;;;7.07;1.50;;;;;;;;;;5086779;28;20082;-77
2024/02/07 08:47:59;;;;;;;5.18;1.00;;;;;;;;;;5090559;28;20032;-78
2024/02/07 08:50:24;;;;;;;2.84;0.58;;;;;;;;;;5084448;28;20420;-77
2024/02/07 08:52:49;;;;;;;1.13;0.30;;;;;;;;;;5086268;28;20032;-78
2024/02/07 08:55:14;;;;;;;4.10;0.70;;;;;;;;;;5088245;28;20040;-78
2024/02/07 08:57:40;;;;;;;5.00;1.00;;;;;;;;;;5090968;28;20039;-78
2024/02/07 09:00:07;;;;;;;7.65;1.23;;;;;;;;;;5090507;28;20115;-77
2024/02/07 09:02:32;;;;;;;6.07;0.60;;;;;;;;;;5087776;28;20039;-77
2024/02/07 09:05:03;;;;;;;5.36;0.50;;;;;;;;;;5084573;28;20028;-77
2024/02/07 09:07:29;;;;;;;3.58;0.50;;;;;;;;;;5086655;28;20058;-77
2024/02/07 09:09:54;;;;;;;4.16;1.38;;;;;;;;;;5086971;28;20028;-78
2024/02/07 09:12:19;;;;;;;2.48;0.94;;;;;;;;;;5092669;28;20111;-77
2024/02/07 09:14:44;;;;;;;7.03;1.30;;;;;;;;;;5089325;28;20039;-77
2024/02/07 09:17:09;;;;;;;2.13;0.80;;;;;;;;;;5091045;28;20034;-78
2024/02/07 09:19:37;;;;;;;4.03;0.77;;;;;;;;;;5087000;28;20034;-78
2024/02/07 09:22:02;;;;;;;3.15;0.90;;;;;;;;;;5087124;28;20035;-78
2024/02/07 09:24:27;;;;;;;3.33;0.70;;;;;;;;;;5083604;28;20044;-78
2024/02/07 09:26:53;;;;;;;3.92;1.00;;;;;;;;;;5085192;28;20040;-80
2024/02/07 09:29:18;;;;;;;3.15;0.82;;;;;;;;;;5086488;28;20098;-77
2024/02/07 09:31:44;;;;;;;4.50;0.60;;;;;;;;;;5080291;28;20071;-78
2024/02/07 09:34:09;;;;;;;4.54;0.70;;;;;;;;;;5081541;28;20138;-78
2024/02/07 09:36:38;;;;;;;2.86;0.48;;;;;;;;;;5079484;28;20566;-77
2024/02/07 09:39:03;;;;;;;2.60;0.43;;;;;;;;;;5086599;28;20035;-76
2024/02/07 09:41:29;;;;;;;1.80;0.50;;;;;;;;;;5076812;28;20028;-77
2024/02/07 09:43:55;;;;;;;3.33;0.50;;;;;;;;;;5076482;28;20028;-77
2024/02/07 09:46:26;;;;;;;2.47;0.45;;;;;;;;;;5090636;28;20020;-76
2024/02/07 09:48:53;;;;;;;2.25;0.50;;;;;;;;;;5086683;28;20500;-76
2024/02/07 09:51:19;;;;;;;6.93;0.82;;;;;;;;;;5084139;28;20523;-77
2024/02/07 09:53:45;;;;;;;4.13;0.50;;;;;;;;;;5085375;28;20064;-76
2024/02/07 09:56:11;;;;;;;4.20;0.88;;;;;;;;;;5087214;28;20060;-77
2024/02/07 09:58:36;;;;;;;2.95;0.60;;;;;;;;;;5091381;28;20032;-76
2024/02/07 10:01:02;;;;;;;2.85;1.00;;;;;;;;;;5088505;28;20092;-75
2024/02/07 10:03:27;;;;;;;1.13;0.30;;;;;;;;;;5087515;28;20020;-77
2024/02/07 10:05:55;;;;;;;2.28;0.63;;;;;;;;;;5082290;28;20048;-77
2024/02/07 10:08:21;;;;;;;5.35;0.60;;;;;;;;;;5088384;28;20028;-77
2024/02/07 10:10:49;;;;;;;2.95;0.57;;;;;;;;;;5089362;28;20020;-77
2024/02/07 10:13:15;;;;;;;5.95;0.82;;;;;;;;;;5086212;28;20036;-77
2024/02/07 10:15:41;;;;;;;5.25;0.60;;;;;;;;;;5089611;28;20431;-77
2024/02/07 10:18:07;;;;;;;6.13;0.82;;;;;;;;;;5086813;28;20035;-77
2024/02/07 10:20:32;;;;;;;4.40;0.90;;;;;;;;;;5084398;28;20028;-77
2024/02/07 10:22:57;;;;;;;4.63;0.60;;;;;;;;;;5089000;28;20032;-77
2024/02/07 10:25:23;;;;;;;2.90;0.50;;;;;;;;;;5091477;28;20040;-77
2024/02/07 10:27:48;;;;;;;2.97;0.50;;;;;;;;;;5088162;28;20032;-77
2024/02/07 10:30:13;;;;;;;2.95;0.40;;;;;;;;;;5084004;28;20032;-77
2024/02/07 10:32:40;;;;;;;3.17;0.63;;;;;;;;;;5084378;28;20032;-77
2024/02/07 10:35:10;;;;;;;1.75;0.60;;;;;;;;;;5089945;28;20038;-77
2024/02/07 10:37:39;;;;;;;2.60;0.68;;;;;;;;;;5086024;28;20077;-77
2024/02/07 10:40:05;;;;;;;2.33;0.60;;;;;;;;;;5075290;28;20028;-77
2024/02/07 10:42:30;;;;;;;4.32;0.93;;;;;;;;;;5074946;28;20492;-77
2024/02/07 10:45:05;;;;;;;9.10;0.75;;;;;;;;;;5078222;28;20032;-78
2024/02/07 10:47:31;;;;;;;2.78;0.60;;;;;;;;;;5078318;28;20496;-77
2024/02/07 10:49:56;;;;;;;4.00;0.90;;;;;;;;;;5075954;28;20110;-76
2024/02/07 10:52:21;;;;;;;2.10;0.47;;;;;;;;;;5078304;28;20024;-78
2024/02/07 10:54:47;;;;;;;3.58;0.55;;;;;;;;;;5085805;28;20020;-77
2024/02/07 10:57:12;;;;;;;4.50;0.88;;;;;;;;;;5087997;28;20028;-77
2024/02/07 10:59:39;;;;;;;1.38;0.40;;;;;;;;;;5082753;28;20469;-78
2024/02/07 11:02:10;;;;;;;1.25;0.30;;;;;;;;;;5090224;28;20449;-78
2024/02/07 11:04:36;;;;;;;2.97;1.05;;;;;;;;;;5084911;28;20040;-77
2024/02/07 11:07:02;;;;;;;3.60;0.88;;;;;;;;;;5087963;28;20130;-77
2024/02/07 11:09:27;;;;;;;2.22;0.52;;;;;;;;;;5090340;28;20051;-78
2024/02/07 11:11:53;;;;;;;3.97;0.80;;;;;;;;;;5089769;28;20040;-77
2024/02/07 11:14:18;;;;;;;1.55;0.50;;;;;;;;;;5096295;28;20488;-77
2024/02/07 11:16:43;;;;;;;4.68;0.60;;;;;;;;;;5095423;28;20043;-78
2024/02/07 11:19:22;;;;;;;2.28;0.70;;;;;;;;;;5087427;28;20488;-77
2024/02/07 11:21:51;;;;;;;3.93;0.80;;;;;;;;;;5069999;28;20060;-77
2024/02/07 11:24:21;;;;;;;3.15;0.52;;;;;;;;;;5086851;28;20301;-78
2024/02/07 11:26:46;;;;;;;3.65;0.60;;;;;;;;;;5083441;28;20029;-77
2024/02/07 11:29:12;;;;;;;4.38;0.70;;;;;;;;;;5086827;28;20032;-77
2024/02/07 11:31:39;;;;;;;5.38;0.75;;;;;;;;;;5082646;28;20044;-77
2024/02/07 11:34:04;;;;;;;3.65;0.70;;;;;;;;;;5084708;28;20020;-77
2024/02/07 11:36:32;;;;;;;4.18;0.70;;;;;;;;;;5086686;28;20027;-77
2024/02/07 11:39:00;;;;;;;3.17;0.70;;;;;;;;;;5083427;28;20468;-77
2024/02/07 11:41:27;;;;;;;2.90;0.40;;;;;;;;;;5081795;28;20110;-77
2024/02/07 11:44:01;;;;;;;3.60;0.80;;;;;;;;;;5083813;28;20020;-77
2024/02/07 11:46:26;;;;;;;1.92;0.40;;;;;;;;;;5086707;28;20054;-78
2024/02/07 11:48:52;;;;;;;3.45;0.68;;;;;;;;;;5087325;28;20028;-78
2024/02/07 11:51:19;;;;;;;2.20;0.60;;;;;;;;;;5084407;28;20036;-77
2024/02/07 11:53:45;;;;;;;2.10;0.82;;;;;;;;;;5082249;28;20392;-77
2024/02/07 11:56:11;;;;;;;3.95;1.00;;;;;;;;;;5082603;28;20032;-78
2024/02/07 11:58:36;;;;;;;2.75;0.80;;;;;;;;;;5082133;28;20032;-77
2024/02/07 12:01:01;;;;;;;5.95;1.30;;;;;;;;;;5092707;28;20125;-77
2024/02/07 12:03:26;;;;;;;6.15;1.10;;;;;;;;;;5089630;28;20115;-77
2024/02/07 12:05:52;;;;;;;2.15;0.82;;;;;;;;;;5090997;28;20023;-77
2024/02/07 12:08:18;;;;;;;3.58;1.23;;;;;;;;;;5084074;28;20053;-77
2024/02/07 12:10:44;;;;;;;4.60;1.35;;;;;;;;;;5088055;28;20437;-78
2024/02/07 12:13:10;;;;;;;6.82;1.65;;;;;;;;;;5085902;28;20028;-78
2024/02/07 12:15:36;;;;;;;9.75;2.15;;;;;;;;;;5092550;28;20396;-77
2024/02/07 12:18:02;;;;;;;4.60;0.93;;;;;;;;;;5088416;28;20023;-77
2024/02/07 12:20:28;;;;;;;4.90;1.20;;;;;;;;;;5088990;28;20085;-78
2024/02/07 12:22:58;;;;;;;3.30;1.27;;;;;;;;;;5089710;28;20064;-78
2024/02/07 12:25:23;;;;;;;5.95;1.20;;;;;;;;;;5085932;28;20043;-78
2024/02/07 12:27:48;;;;;;;3.05;1.00;;;;;;;;;;5085448;28;20037;-78
2024/02/07 12:30:14;;;;;;;3.40;0.95;;;;;;;;;;5091944;28;20459;-78
2024/02/07 12:32:39;;;;;;;4.78;1.17;;;;;;;;;;5089482;28;20061;-78
2024/02/07 12:35:05;;;;;;;4.10;0.98;;;;;;;;;;5089253;28;20036;-77
2024/02/07 12:37:30;;;;;;;4.50;1.30;;;;;;;;;;5088988;28;20123;-78
2024/02/07 12:39:56;;;;;;;5.05;1.08;;;;;;;;;;5085447;28;20104;-78
2024/02/07 12:42:24;;;;;;;3.47;1.25;;;;;;;;;;5085761;28;20066;-78
2024/02/07 12:44:49;;;;;;;6.75;1.08;;;;;;;;;;5090469;28;20041;-78
2024/02/07 12:47:15;;;;;;;4.35;1.25;;;;;;;;;;5090567;28;20533;-78
2024/02/07 12:49:48;;;;;;;6.82;1.50;;;;;;;;;;5086311;28;20032;-78
2024/02/07 12:52:26;;;;;;;5.55;1.35;;;;;;;;;;5087822;28;20028;-78
2024/02/07 12:54:51;;;;;;;6.43;1.58;;;;;;;;;;5084443;28;20040;-78
2024/02/07 12:57:21;;;;;;;4.05;1.33;;;;;;;;;;5091482;28;20089;-78
2024/02/07 12:59:46;;;;;;;5.00;1.60;;;;;;;;;;5089224;28;20040;-78
2024/02/07 13:02:11;;;;;;;6.60;1.60;;;;;;;;;;5089650;28;20151;-78
2024/02/07 13:04:37;;;;;;;6.95;1.95;;;;;;;;;;5084982;28;20370;-78
2024/02/07 13:07:05;;;;;;;6.55;2.38;;;;;;;;;;5088656;28;20024;-78
2024/02/07 13:09:30;;;;;;;3.75;1.40;;;;;;;;;;5081930;28;20427;-78
2024/02/07 13:11:55;;;;;;;6.75;1.65;;;;;;;;;;5090075;28;20047;-78
2024/02/07 13:14:20;;;;;;;6.10;2.30;;;;;;;;;;5089977;28;20024;-78
2024/02/07 13:16:46;;;;;;;8.88;1.92;;;;;;;;;;5088634;28;20039;-78
2024/02/07 13:19:14;;;;;;;6.30;1.55;;;;;;;;;;5087232;28;20067;-78
2024/02/07 13:21:40;;;;;;;5.65;1.73;;;;;;;;;;5081813;28;20385;-78
2024/02/07 13:24:07;;;;;;;8.73;1.67;;;;;;;;;;5091595;28;20035;-78
2024/02/07 13:26:32;;;;;;;7.18;2.00;;;;;;;;;;5090189;28;20055;-78
2024/02/07 13:28:58;;;;;;;4.53;1.65;;;;;;;;;;5088377;28;20480;-78
2024/02/07 13:31:23;;;;;;;8.90;1.65;;;;;;;;;;5088136;28;20095;-78
2024/02/07 13:33:48;;;;;;;6.28;1.30;;;;;;;;;;5084356;28;20514;-78
2024/02/07 13:36:13;;;;;;;7.80;1.80;;;;;;;;;;5089036;28;20039;-78
2024/02/07 13:38:39;;;;;;;6.00;1.98;;;;;;;;;;5088638;28;20059;-78
2024/02/07 13:41:04;;;;;;;5.95;1.75;;;;;;;;;;5090023;28;20032;-78
2024/02/07 13:43:29;;;;;;;9.70;2.38;;;;;;;;;;5088244;28;20077;-79
2024/02/07 13:45:54;;;;;;;7.10;1.20;;;;;;;;;;5089294;28;20393;-78
2024/02/07 13:48:20;;;;;;;6.72;1.27;;;;;;;;;;5085412;28;20024;-76
2024/02/07 13:50:45;;;;;;;5.35;1.40;;;;;;;;;;5080969;28;20034;-76
2024/02/07 13:53:10;;;;;;;10.98;2.45;;;;;;;;;;5090590;28;20071;-76
2024/02/07 13:55:35;;;;;;;7.70;1.92;;;;;;;;;;5087880;28;20036;-76
2024/02/07 13:58:00;;;;;;;9.35;1.58;;;;;;;;;;5078844;28;20039;-76
2024/02/07 14:00:26;;;;;;;7.22;2.25;;;;;;;;;;5075601;28;20020;-76
2024/02/07 14:02:51;;;;;;;14.88;2.53;;;;;;;;;;5086016;28;20053;-77
2024/02/07 14:05:16;;;;;;;7.32;2.47;;;;;;;;;;5082770;28;20035;-77
2024/02/07 14:07:41;;;;;;;8.27;2.13;;;;;;;;;;5082220;28;20077;-77
2024/02/07 14:10:07;;;;;;;7.85;2.60;;;;;;;;;;5088380;28;20073;-77
2024/02/07 14:12:32;;;;;;;8.23;2.72;;;;;;;;;;5085477;28;20043;-77
2024/02/07 14:14:57;;;;;;;15.90;4.32;;;;;;;;;;5084029;28;20705;-76
2024/02/07 14:17:22;;;;;;;8.93;2.67;;;;;;;;;;5084577;28;20024;-76
2024/02/07 14:19:48;;;;;;;14.68;3.20;;;;;;;;;;5084119;28;20089;-76
2024/02/07 14:22:13;;;;;;;12.70;1.90;;;;;;;;;;5080628;28;20039;-76
2024/02/07 14:24:40;;;;;;;14.02;2.58;;;;;;;;;;5079055;28;20035;-76
2024/02/07 14:27:05;;;;;;;13.13;2.95;;;;;;;;;;5083544;28;20028;-76
2024/02/07 14:29:30;;;;;;;11.13;2.35;;;;;;;;;;5082979;28;20541;-76
2024/02/07 14:31:56;;;;;;;12.80;2.55;;;;;;;;;;5081780;28;20492;-76
2024/02/07 14:34:22;;;;;;;11.88;2.30;;;;;;;;;;5088616;28;20039;-76
2024/02/07 14:36:47;;;;;;;8.30;1.65;;;;;;;;;;5088623;28;20043;-77
2024/02/07 14:39:12;;;;;;;12.18;1.85;;;;;;;;;;5087550;28;20407;-77
2024/02/07 14:41:37;;;;;;;14.35;2.00;;;;;;;;;;5083318;28;20082;-77
2024/02/07 14:44:02;;;;;;;9.07;2.00;;;;;;;;;;5083588;28;20103;-77
2024/02/07 14:46:27;;;;;;;11.75;2.10;;;;;;;;;;5084377;28;20082;-76
2024/02/07 14:48:53;;;;;;;11.45;2.50;;;;;;;;;;5088228;28;20032;-77
2024/02/07 14:51:18;;;;;;;10.10;2.40;;;;;;;;;;5088018;28;20050;-76
2024/02/07 14:53:43;;;;;;;13.10;2.78;;;;;;;;;;5084610;28;20036;-76
2024/02/07 14:56:08;;;;;;;12.73;2.20;;;;;;;;;;5088229;28;20028;-76
2024/02/07 14:58:34;;;;;;;7.25;1.63;;;;;;;;;;5081230;28;20063;-76
2024/02/07 15:00:59;;;;;;;9.13;1.88;;;;;;;;;;5081292;28;20122;-76
2024/02/07 15:03:24;;;;;;;9.05;3.03;;;;;;;;;;5088745;28;20035;-77
2024/02/07 15:05:49;;;;;;;11.50;2.40;;;;;;;;;;5087863;28;20031;-76
2024/02/07 15:08:15;;;;;;;11.38;2.40;;;;;;;;;;5081498;28;20485;-76
2024/02/07 15:10:41;;;;;;;8.75;2.20;;;;;;;;;;5074220;28;20032;-77
2024/02/07 15:13:06;;;;;;;12.60;2.53;;;;;;;;;;5078593;28;20028;-76
2024/02/07 15:15:31;;;;;;;15.65;2.65;;;;;;;;;;5078169;28;20047;-79
2024/02/07 15:17:56;;;;;;;7.47;1.80;;;;;;;;;;5088509;28;20106;-77
2024/02/07 15:20:22;;;;;;;7.93;2.20;;;;;;;;;;5086887;28;20054;-77
2024/02/07 15:22:47;;;;;;;10.98;2.42;;;;;;;;;;5085480;28;20058;-76
2024/02/07 15:25:12;;;;;;;7.45;1.92;;;;;;;;;;5079881;28;20028;-76
2024/02/07 15:27:37;;;;;;;11.98;2.30;;;;;;;;;;5087683;28;20820;-76
2024/02/07 15:30:03;;;;;;;12.73;2.25;;;;;;;;;;5085011;28;20039;-77
2024/02/07 15:32:29;;;;;;;9.38;1.90;;;;;;;;;;5090172;28;20032;-76
2024/02/07 15:34:55;;;;;;;10.70;1.90;;;;;;;;;;5088824;28;20124;-77
2024/02/07 15:37:20;;;;;;;12.43;3.35;;;;;;;;;;5089601;28;20115;-76
2024/02/07 15:39:45;;;;;;;10.98;3.28;;;;;;;;;;5084415;28;20111;-76